sensor_id;sensor_type;location;lat;lon;timestamp;P1;durP1;ratioP1;P2;durP2;ratioP2
64029;SDS011;50277;52.064;4.492;2023-09-07T00:01:43;8.27;;;5.78;;
64029;SDS011;50277;52.064;4.492;2023-09-07T00:04:08;12.68;;;6.22;;
64029;SDS011;50277;52.064;4.492;2023-09-07T00:06:34;6.57;;;5.82;;
64029;SDS011;50277;52.064;4.492;2023-09-07T00:09:00;6.55;;;5.90;;
64029;SDS011;50277;52.064;4.492;2023-09-07T00:11:25;7.75;;;5.93;;
64029;SDS011;50277;52.064;4.492;2023-09-07T00:13:51;6.88;;;6.18;;
64029;SDS011;50277;52.064;4.492;2023-09-07T00:16:16;8.63;;;6.22;;
64029;SDS011;50277;52.064;4.492;2023-09-07T00:18:41;7.28;;;6.57;;
64029;SDS011;50277;52.064;4.492;2023-09-07T00:21:07;9.43;;;6.18;;
64029;SDS011;50277;52.064;4.492;2023-09-07T00:23:32;7.47;;;6.30;;
64029;SDS011;50277;52.064;4.492;2023-09-07T00:25:57;8.65;;;6.68;;
64029;SDS011;50277;52.064;4.492;2023-09-07T00:28:22;9.43;;;5.90;;
64029;SDS011;50277;52.064;4.492;2023-09-07T00:30:48;11.57;;;5.95;;
64029;SDS011;50277;52.064;4.492;2023-09-07T00:33:13;9.32;;;6.18;;
64029;SDS011;50277;52.064;4.492;2023-09-07T00:35:38;11.93;;;6.57;;
64029;SDS011;50277;52.064;4.492;2023-09-07T00:38:04;6.95;;;6.25;;
64029;SDS011;50277;52.064;4.492;2023-09-07T00:40:29;8.75;;;6.80;;
64029;SDS011;50277;52.064;4.492;2023-09-07T00:42:55;11.93;;;7.60;;
64029;SDS011;50277;52.064;4.492;2023-09-07T00:45:20;9.63;;;6.63;;
64029;SDS011;50277;52.064;4.492;2023-09-07T00:47:46;8.50;;;6.82;;
64029;SDS011;50277;52.064;4.492;2023-09-07T00:50:11;8.43;;;6.43;;
64029;SDS011;50277;52.064;4.492;2023-09-07T00:52:44;8.38;;;6.88;;
64029;SDS011;50277;52.064;4.492;2023-09-07T00:55:11;10.00;;;6.93;;
64029;SDS011;50277;52.064;4.492;2023-09-07T00:57:37;7.53;;;6.78;;
64029;SDS011;50277;52.064;4.492;2023-09-07T01:00:04;7.80;;;7.00;;
64029;SDS011;50277;52.064;4.492;2023-09-07T01:02:31;8.52;;;6.55;;
64029;SDS011;50277;52.064;4.492;2023-09-07T01:04:57;7.70;;;6.90;;
64029;SDS011;50277;52.064;4.492;2023-09-07T01:07:24;8.38;;;7.57;;
64029;SDS011;50277;52.064;4.492;2023-09-07T01:09:54;8.18;;;7.38;;
64029;SDS011;50277;52.064;4.492;2023-09-07T01:12:21;12.85;;;7.47;;
64029;SDS011;50277;52.064;4.492;2023-09-07T01:14:46;8.80;;;7.30;;
64029;SDS011;50277;52.064;4.492;2023-09-07T01:17:12;11.52;;;7.93;;
64029;SDS011;50277;52.064;4.492;2023-09-07T01:19:38;7.28;;;6.57;;
64029;SDS011;50277;52.064;4.492;2023-09-07T01:22:04;11.48;;;7.03;;
64029;SDS011;50277;52.064;4.492;2023-09-07T01:24:31;9.43;;;7.10;;
64029;SDS011;50277;52.064;4.492;2023-09-07T01:26:57;8.80;;;7.57;;
64029;SDS011;50277;52.064;4.492;2023-09-07T01:29:23;8.35;;;6.60;;
64029;SDS011;50277;52.064;4.492;2023-09-07T01:31:49;8.38;;;7.57;;
64029;SDS011;50277;52.064;4.492;2023-09-07T01:34:14;10.02;;;7.57;;
64029;SDS011;50277;52.064;4.492;2023-09-07T01:36:40;8.00;;;7.05;;
64029;SDS011;50277;52.064;4.492;2023-09-07T01:39:05;7.65;;;6.80;;
64029;SDS011;50277;52.064;4.492;2023-09-07T01:41:31;10.00;;;7.22;;
64029;SDS011;50277;52.064;4.492;2023-09-07T01:43:56;9.27;;;7.45;;
64029;SDS011;50277;52.064;4.492;2023-09-07T01:46:22;8.82;;;7.57;;
64029;SDS011;50277;52.064;4.492;2023-09-07T01:48:47;9.30;;;7.05;;
64029;SDS011;50277;52.064;4.492;2023-09-07T01:51:12;9.75;;;7.78;;
64029;SDS011;50277;52.064;4.492;2023-09-07T01:53:38;9.80;;;7.55;;
64029;SDS011;50277;52.064;4.492;2023-09-07T01:56:03;8.82;;;8.02;;
64029;SDS011;50277;52.064;4.492;2023-09-07T01:58:28;8.18;;;7.38;;
64029;SDS011;50277;52.064;4.492;2023-09-07T02:00:57;8.80;;;7.60;;
64029;SDS011;50277;52.064;4.492;2023-09-07T02:03:23;11.32;;;7.88;;
64029;SDS011;50277;52.064;4.492;2023-09-07T02:05:48;8.95;;;8.05;;
64029;SDS011;50277;52.064;4.492;2023-09-07T02:08:13;10.73;;;8.23;;
64029;SDS011;50277;52.064;4.492;2023-09-07T02:10:39;9.25;;;8.32;;
64029;SDS011;50277;52.064;4.492;2023-09-07T02:13:04;12.85;;;8.77;;
64029;SDS011;50277;52.064;4.492;2023-09-07T02:15:29;9.05;;;7.95;;
64029;SDS011;50277;52.064;4.492;2023-09-07T02:17:55;9.82;;;8.25;;
64029;SDS011;50277;52.064;4.492;2023-09-07T02:20:20;10.18;;;8.57;;
64029;SDS011;50277;52.064;4.492;2023-09-07T02:22:45;11.13;;;8.60;;
64029;SDS011;50277;52.064;4.492;2023-09-07T02:25:11;9.52;;;8.57;;
64029;SDS011;50277;52.064;4.492;2023-09-07T02:27:36;11.60;;;9.07;;
64029;SDS011;50277;52.064;4.492;2023-09-07T02:30:02;12.65;;;9.25;;
64029;SDS011;50277;52.064;4.492;2023-09-07T02:32:28;10.70;;;8.68;;
64029;SDS011;50277;52.064;4.492;2023-09-07T02:34:53;10.00;;;8.48;;
64029;SDS011;50277;52.064;4.492;2023-09-07T02:37:19;10.27;;;9.27;;
64029;SDS011;50277;52.064;4.492;2023-09-07T02:39:44;10.20;;;9.10;;
64029;SDS011;50277;52.064;4.492;2023-09-07T02:42:10;12.18;;;9.82;;
64029;SDS011;50277;52.064;4.492;2023-09-07T02:44:35;11.00;;;9.90;;
64029;SDS011;50277;52.064;4.492;2023-09-07T02:47:00;13.32;;;9.77;;
64029;SDS011;50277;52.064;4.492;2023-09-07T02:49:26;13.48;;;9.50;;
64029;SDS011;50277;52.064;4.492;2023-09-07T02:51:51;10.70;;;9.60;;
64029;SDS011;50277;52.064;4.492;2023-09-07T02:54:16;11.30;;;9.85;;
64029;SDS011;50277;52.064;4.492;2023-09-07T02:56:42;11.80;;;9.00;;
64029;SDS011;50277;52.064;4.492;2023-09-07T02:59:07;12.95;;;9.38;;
64029;SDS011;50277;52.064;4.492;2023-09-07T03:01:33;11.68;;;10.18;;
64029;SDS011;50277;52.064;4.492;2023-09-07T03:03:59;10.63;;;9.32;;
64029;SDS011;50277;52.064;4.492;2023-09-07T03:06:24;10.88;;;9.77;;
64029;SDS011;50277;52.064;4.492;2023-09-07T03:08:49;11.30;;;9.77;;
64029;SDS011;50277;52.064;4.492;2023-09-07T03:11:15;13.38;;;10.02;;
64029;SDS011;50277;52.064;4.492;2023-09-07T03:13:40;11.95;;;9.85;;
64029;SDS011;50277;52.064;4.492;2023-09-07T03:16:07;12.80;;;9.70;;
64029;SDS011;50277;52.064;4.492;2023-09-07T03:18:32;13.90;;;9.93;;
64029;SDS011;50277;52.064;4.492;2023-09-07T03:20:59;13.07;;;9.60;;
64029;SDS011;50277;52.064;4.492;2023-09-07T03:23:25;11.63;;;9.98;;
64029;SDS011;50277;52.064;4.492;2023-09-07T03:25:50;11.48;;;9.80;;
64029;SDS011;50277;52.064;4.492;2023-09-07T03:28:16;13.35;;;11.43;;
64029;SDS011;50277;52.064;4.492;2023-09-07T03:30:41;13.05;;;10.68;;
64029;SDS011;50277;52.064;4.492;2023-09-07T03:33:06;11.45;;;10.25;;
64029;SDS011;50277;52.064;4.492;2023-09-07T03:35:32;12.63;;;10.88;;
64029;SDS011;50277;52.064;4.492;2023-09-07T03:37:57;13.35;;;11.02;;
64029;SDS011;50277;52.064;4.492;2023-09-07T03:40:23;11.82;;;10.43;;
64029;SDS011;50277;52.064;4.492;2023-09-07T03:42:49;12.45;;;11.32;;
64029;SDS011;50277;52.064;4.492;2023-09-07T03:45:14;12.13;;;10.38;;
64029;SDS011;50277;52.064;4.492;2023-09-07T03:47:40;14.45;;;11.15;;
64029;SDS011;50277;52.064;4.492;2023-09-07T03:50:06;14.30;;;11.43;;
64029;SDS011;50277;52.064;4.492;2023-09-07T03:52:32;13.57;;;11.65;;
64029;SDS011;50277;52.064;4.492;2023-09-07T03:54:57;12.23;;;11.00;;
64029;SDS011;50277;52.064;4.492;2023-09-07T03:57:23;12.60;;;11.25;;
64029;SDS011;50277;52.064;4.492;2023-09-07T03:59:49;13.27;;;10.77;;
64029;SDS011;50277;52.064;4.492;2023-09-07T04:02:15;14.02;;;11.88;;
64029;SDS011;50277;52.064;4.492;2023-09-07T04:04:41;19.38;;;11.20;;
64029;SDS011;50277;52.064;4.492;2023-09-07T04:07:07;16.30;;;11.63;;
64029;SDS011;50277;52.064;4.492;2023-09-07T04:09:32;14.90;;;11.80;;
64029;SDS011;50277;52.064;4.492;2023-09-07T04:11:58;13.98;;;11.65;;
64029;SDS011;50277;52.064;4.492;2023-09-07T04:14:23;14.25;;;11.93;;
64029;SDS011;50277;52.064;4.492;2023-09-07T04:16:48;15.10;;;11.60;;
64029;SDS011;50277;52.064;4.492;2023-09-07T04:19:15;14.90;;;11.98;;
64029;SDS011;50277;52.064;4.492;2023-09-07T04:21:40;15.48;;;11.43;;
64029;SDS011;50277;52.064;4.492;2023-09-07T04:24:06;13.88;;;12.38;;
64029;SDS011;50277;52.064;4.492;2023-09-07T04:26:32;12.63;;;11.43;;
64029;SDS011;50277;52.064;4.492;2023-09-07T04:28:58;15.70;;;11.40;;
64029;SDS011;50277;52.064;4.492;2023-09-07T04:31:23;18.08;;;12.48;;
64029;SDS011;50277;52.064;4.492;2023-09-07T04:36:17;12.60;;;11.27;;
64029;SDS011;50277;52.064;4.492;2023-09-07T04:38:42;13.27;;;11.95;;
64029;SDS011;50277;52.064;4.492;2023-09-07T04:41:08;13.65;;;12.13;;
64029;SDS011;50277;52.064;4.492;2023-09-07T04:43:37;19.65;;;12.65;;
64029;SDS011;50277;52.064;4.492;2023-09-07T04:46:05;17.55;;;12.27;;
64029;SDS011;50277;52.064;4.492;2023-09-07T04:48:31;13.82;;;12.10;;
64029;SDS011;50277;52.064;4.492;2023-09-07T04:51:00;16.35;;;12.18;;
64029;SDS011;50277;52.064;4.492;2023-09-07T04:53:30;13.80;;;12.38;;
64029;SDS011;50277;52.064;4.492;2023-09-07T04:55:56;17.08;;;12.68;;
64029;SDS011;50277;52.064;4.492;2023-09-07T04:58:22;15.88;;;12.85;;
64029;SDS011;50277;52.064;4.492;2023-09-07T05:00:47;14.65;;;12.45;;
64029;SDS011;50277;52.064;4.492;2023-09-07T05:03:13;14.43;;;12.27;;
64029;SDS011;50277;52.064;4.492;2023-09-07T05:05:38;16.77;;;12.60;;
64029;SDS011;50277;52.064;4.492;2023-09-07T05:08:04;18.42;;;12.48;;
64029;SDS011;50277;52.064;4.492;2023-09-07T05:10:32;18.17;;;11.95;;
64029;SDS011;50277;52.064;4.492;2023-09-07T05:12:58;16.65;;;12.02;;
64029;SDS011;50277;52.064;4.492;2023-09-07T05:15:23;14.40;;;11.45;;
64029;SDS011;50277;52.064;4.492;2023-09-07T05:17:49;12.95;;;11.57;;
64029;SDS011;50277;52.064;4.492;2023-09-07T05:20:14;13.48;;;11.80;;
64029;SDS011;50277;52.064;4.492;2023-09-07T05:22:39;14.75;;;12.15;;
64029;SDS011;50277;52.064;4.492;2023-09-07T05:25:06;17.50;;;12.00;;
64029;SDS011;50277;52.064;4.492;2023-09-07T05:27:31;15.57;;;11.52;;
64029;SDS011;50277;52.064;4.492;2023-09-07T05:29:57;12.73;;;11.50;;
64029;SDS011;50277;52.064;4.492;2023-09-07T05:32:22;14.93;;;12.25;;
64029;SDS011;50277;52.064;4.492;2023-09-07T05:34:47;13.57;;;11.18;;
64029;SDS011;50277;52.064;4.492;2023-09-07T05:37:13;13.32;;;11.65;;
64029;SDS011;50277;52.064;4.492;2023-09-07T05:39:38;13.10;;;11.20;;
64029;SDS011;50277;52.064;4.492;2023-09-07T05:42:03;13.07;;;11.32;;
64029;SDS011;50277;52.064;4.492;2023-09-07T05:44:29;13.73;;;10.32;;
64029;SDS011;50277;52.064;4.492;2023-09-07T05:46:54;10.40;;;9.30;;
64029;SDS011;50277;52.064;4.492;2023-09-07T05:49:19;11.05;;;9.90;;
64029;SDS011;50277;52.064;4.492;2023-09-07T05:51:45;12.07;;;10.50;;
64029;SDS011;50277;52.064;4.492;2023-09-07T05:54:10;11.93;;;10.05;;
64029;SDS011;50277;52.064;4.492;2023-09-07T05:56:35;15.18;;;10.70;;
64029;SDS011;50277;52.064;4.492;2023-09-07T05:59:01;12.10;;;10.90;;
64029;SDS011;50277;52.064;4.492;2023-09-07T06:01:26;11.35;;;10.10;;
64029;SDS011;50277;52.064;4.492;2023-09-07T06:03:51;11.82;;;9.95;;
64029;SDS011;50277;52.064;4.492;2023-09-07T06:06:16;11.82;;;10.63;;
64029;SDS011;50277;52.064;4.492;2023-09-07T06:08:42;14.00;;;10.27;;
64029;SDS011;50277;52.064;4.492;2023-09-07T06:11:07;11.43;;;9.40;;
64029;SDS011;50277;52.064;4.492;2023-09-07T06:13:33;17.83;;;10.57;;
64029;SDS011;50277;52.064;4.492;2023-09-07T06:15:58;14.50;;;10.10;;
64029;SDS011;50277;52.064;4.492;2023-09-07T06:18:25;11.65;;;10.00;;
64029;SDS011;50277;52.064;4.492;2023-09-07T06:20:51;11.50;;;10.02;;
64029;SDS011;50277;52.064;4.492;2023-09-07T06:23:16;10.93;;;9.50;;
64029;SDS011;50277;52.064;4.492;2023-09-07T06:25:41;11.70;;;9.75;;
64029;SDS011;50277;52.064;4.492;2023-09-07T06:28:07;11.38;;;9.10;;
64029;SDS011;50277;52.064;4.492;2023-09-07T06:30:32;9.90;;;8.68;;
64029;SDS011;50277;52.064;4.492;2023-09-07T06:32:57;12.07;;;9.93;;
64029;SDS011;50277;52.064;4.492;2023-09-07T06:35:23;16.80;;;9.73;;
64029;SDS011;50277;52.064;4.492;2023-09-07T06:37:48;27.02;;;9.75;;
64029;SDS011;50277;52.064;4.492;2023-09-07T06:40:13;12.50;;;9.95;;
64029;SDS011;50277;52.064;4.492;2023-09-07T06:42:40;17.15;;;9.77;;
64029;SDS011;50277;52.064;4.492;2023-09-07T06:45:06;12.27;;;10.15;;
64029;SDS011;50277;52.064;4.492;2023-09-07T06:47:32;16.90;;;9.63;;
64029;SDS011;50277;52.064;4.492;2023-09-07T06:49:57;12.85;;;9.13;;
64029;SDS011;50277;52.064;4.492;2023-09-07T06:52:23;12.95;;;9.10;;
64029;SDS011;50277;52.064;4.492;2023-09-07T06:54:50;13.35;;;8.70;;
64029;SDS011;50277;52.064;4.492;2023-09-07T06:57:17;13.35;;;9.07;;
64029;SDS011;50277;52.064;4.492;2023-09-07T06:59:42;11.98;;;8.85;;
64029;SDS011;50277;52.064;4.492;2023-09-07T07:02:08;11.18;;;8.30;;
64029;SDS011;50277;52.064;4.492;2023-09-07T07:04:33;9.93;;;8.93;;
64029;SDS011;50277;52.064;4.492;2023-09-07T07:07:00;11.95;;;8.75;;
64029;SDS011;50277;52.064;4.492;2023-09-07T07:09:30;12.15;;;8.73;;
64029;SDS011;50277;52.064;4.492;2023-09-07T07:11:58;11.57;;;8.35;;
64029;SDS011;50277;52.064;4.492;2023-09-07T07:14:25;9.75;;;8.43;;
64029;SDS011;50277;52.064;4.492;2023-09-07T07:16:50;12.07;;;8.20;;
64029;SDS011;50277;52.064;4.492;2023-09-07T07:19:16;12.43;;;8.48;;
64029;SDS011;50277;52.064;4.492;2023-09-07T07:21:41;12.57;;;8.35;;
64029;SDS011;50277;52.064;4.492;2023-09-07T07:24:07;10.07;;;9.02;;
64029;SDS011;50277;52.064;4.492;2023-09-07T07:26:32;11.93;;;8.13;;
64029;SDS011;50277;52.064;4.492;2023-09-07T07:28:58;14.10;;;8.07;;
64029;SDS011;50277;52.064;4.492;2023-09-07T07:31:23;11.68;;;8.52;;
64029;SDS011;50277;52.064;4.492;2023-09-07T07:33:48;12.70;;;8.68;;
64029;SDS011;50277;52.064;4.492;2023-09-07T07:36:14;10.40;;;8.38;;
64029;SDS011;50277;52.064;4.492;2023-09-07T07:38:39;10.80;;;8.57;;
64029;SDS011;50277;52.064;4.492;2023-09-07T07:41:04;9.02;;;8.13;;
64029;SDS011;50277;52.064;4.492;2023-09-07T07:43:30;9.88;;;8.70;;
64029;SDS011;50277;52.064;4.492;2023-09-07T07:45:55;17.27;;;9.80;;
64029;SDS011;50277;52.064;4.492;2023-09-07T07:48:21;10.48;;;8.52;;
64029;SDS011;50277;52.064;4.492;2023-09-07T07:50:46;13.05;;;8.93;;
64029;SDS011;50277;52.064;4.492;2023-09-07T07:53:12;9.55;;;8.32;;
64029;SDS011;50277;52.064;4.492;2023-09-07T07:55:38;10.43;;;8.15;;
64029;SDS011;50277;52.064;4.492;2023-09-07T07:58:06;11.57;;;8.90;;
64029;SDS011;50277;52.064;4.492;2023-09-07T08:00:33;15.60;;;7.72;;
64029;SDS011;50277;52.064;4.492;2023-09-07T08:02:59;9.53;;;7.73;;
64029;SDS011;50277;52.064;4.492;2023-09-07T08:05:25;14.48;;;7.60;;
64029;SDS011;50277;52.064;4.492;2023-09-07T08:07:50;9.73;;;7.80;;
64029;SDS011;50277;52.064;4.492;2023-09-07T08:10:18;8.02;;;7.22;;
64029;SDS011;50277;52.064;4.492;2023-09-07T08:12:43;8.10;;;7.30;;
64029;SDS011;50277;52.064;4.492;2023-09-07T08:15:09;10.40;;;7.28;;
64029;SDS011;50277;52.064;4.492;2023-09-07T08:17:34;9.27;;;7.55;;
64029;SDS011;50277;52.064;4.492;2023-09-07T08:20:00;10.45;;;7.50;;
64029;SDS011;50277;52.064;4.492;2023-09-07T08:22:25;8.02;;;6.65;;
64029;SDS011;50277;52.064;4.492;2023-09-07T08:24:52;9.30;;;7.30;;
64029;SDS011;50277;52.064;4.492;2023-09-07T08:27:19;8.50;;;7.00;;
64029;SDS011;50277;52.064;4.492;2023-09-07T08:29:44;11.82;;;6.95;;
64029;SDS011;50277;52.064;4.492;2023-09-07T08:32:13;9.18;;;7.10;;
64029;SDS011;50277;52.064;4.492;2023-09-07T08:34:39;9.77;;;6.80;;
64029;SDS011;50277;52.064;4.492;2023-09-07T08:37:06;12.85;;;6.72;;
64029;SDS011;50277;52.064;4.492;2023-09-07T08:39:33;5.90;;;5.22;;
64029;SDS011;50277;52.064;4.492;2023-09-07T08:41:59;8.20;;;6.22;;
64029;SDS011;50277;52.064;4.492;2023-09-07T08:44:25;9.90;;;5.75;;
64029;SDS011;50277;52.064;4.492;2023-09-07T08:46:51;9.30;;;6.40;;
64029;SDS011;50277;52.064;4.492;2023-09-07T08:49:17;9.18;;;6.20;;
64029;SDS011;50277;52.064;4.492;2023-09-07T08:51:45;9.30;;;6.57;;
64029;SDS011;50277;52.064;4.492;2023-09-07T08:54:10;7.15;;;6.00;;
64029;SDS011;50277;52.064;4.492;2023-09-07T08:56:37;9.87;;;5.97;;
64029;SDS011;50277;52.064;4.492;2023-09-07T08:59:02;13.52;;;7.53;;
64029;SDS011;50277;52.064;4.492;2023-09-07T09:01:29;13.63;;;6.78;;
64029;SDS011;50277;52.064;4.492;2023-09-07T09:03:56;7.43;;;6.60;;
64029;SDS011;50277;52.064;4.492;2023-09-07T09:06:22;10.60;;;6.72;;
64029;SDS011;50277;52.064;4.492;2023-09-07T09:08:48;11.00;;;5.75;;
64029;SDS011;50277;52.064;4.492;2023-09-07T09:11:15;8.48;;;6.60;;
64029;SDS011;50277;52.064;4.492;2023-09-07T09:13:41;10.23;;;6.40;;
64029;SDS011;50277;52.064;4.492;2023-09-07T09:16:07;9.55;;;6.55;;
64029;SDS011;50277;52.064;4.492;2023-09-07T09:18:33;6.53;;;5.70;;
64029;SDS011;50277;52.064;4.492;2023-09-07T09:20:58;11.07;;;6.20;;
64029;SDS011;50277;52.064;4.492;2023-09-07T09:23:24;7.20;;;5.90;;
64029;SDS011;50277;52.064;4.492;2023-09-07T09:25:50;7.35;;;5.95;;
64029;SDS011;50277;52.064;4.492;2023-09-07T09:28:16;6.68;;;5.63;;
64029;SDS011;50277;52.064;4.492;2023-09-07T09:30:41;9.38;;;6.75;;
64029;SDS011;50277;52.064;4.492;2023-09-07T09:33:10;9.80;;;7.05;;
64029;SDS011;50277;52.064;4.492;2023-09-07T09:35:36;9.43;;;5.90;;
64029;SDS011;50277;52.064;4.492;2023-09-07T09:40:29;10.73;;;6.00;;
64029;SDS011;50277;52.064;4.492;2023-09-07T09:42:55;9.93;;;6.25;;
64029;SDS011;50277;52.064;4.492;2023-09-07T09:45:22;12.57;;;5.97;;
64029;SDS011;50277;52.064;4.492;2023-09-07T09:47:47;13.63;;;6.50;;
64029;SDS011;50277;52.064;4.492;2023-09-07T09:50:15;6.40;;;5.80;;
64029;SDS011;50277;52.064;4.492;2023-09-07T09:52:41;8.77;;;5.88;;
64029;SDS011;50277;52.064;4.492;2023-09-07T09:55:07;10.15;;;5.57;;
64029;SDS011;50277;52.064;4.492;2023-09-07T09:57:36;8.93;;;5.30;;
64029;SDS011;50277;52.064;4.492;2023-09-07T10:00:01;7.32;;;5.72;;
64029;SDS011;50277;52.064;4.492;2023-09-07T10:02:42;7.18;;;5.53;;
64029;SDS011;50277;52.064;4.492;2023-09-07T10:05:09;7.68;;;5.47;;
64029;SDS011;50277;52.064;4.492;2023-09-07T10:07:41;10.68;;;5.07;;
64029;SDS011;50277;52.064;4.492;2023-09-07T10:10:09;11.95;;;5.70;;
64029;SDS011;50277;52.064;4.492;2023-09-07T10:12:39;7.80;;;5.50;;
64029;SDS011;50277;52.064;4.492;2023-09-07T10:15:29;11.00;;;5.63;;
64029;SDS011;50277;52.064;4.492;2023-09-07T10:18:04;15.07;;;6.00;;
64029;SDS011;50277;52.064;4.492;2023-09-07T10:23:35;9.55;;;5.00;;
64029;SDS011;50277;52.064;4.492;2023-09-07T10:26:02;8.35;;;4.55;;
64029;SDS011;50277;52.064;4.492;2023-09-07T10:28:31;11.57;;;5.38;;
64029;SDS011;50277;52.064;4.492;2023-09-07T10:31:04;8.20;;;4.68;;
64029;SDS011;50277;52.064;4.492;2023-09-07T10:33:31;5.20;;;4.70;;
64029;SDS011;50277;52.064;4.492;2023-09-07T10:36:00;5.93;;;5.07;;
64029;SDS011;50277;52.064;4.492;2023-09-07T10:38:26;7.07;;;4.53;;
64029;SDS011;50277;52.064;4.492;2023-09-07T10:41:00;8.10;;;4.88;;
64029;SDS011;50277;52.064;4.492;2023-09-07T10:43:27;6.78;;;4.53;;
64029;SDS011;50277;52.064;4.492;2023-09-07T10:45:55;7.55;;;4.72;;
64029;SDS011;50277;52.064;4.492;2023-09-07T10:48:21;7.15;;;4.43;;
64029;SDS011;50277;52.064;4.492;2023-09-07T10:50:47;7.13;;;4.38;;
64029;SDS011;50277;52.064;4.492;2023-09-07T10:53:13;7.60;;;4.60;;
64029;SDS011;50277;52.064;4.492;2023-09-07T10:55:39;5.55;;;4.18;;
64029;SDS011;50277;52.064;4.492;2023-09-07T10:58:05;9.93;;;4.38;;
64029;SDS011;50277;52.064;4.492;2023-09-07T11:00:31;7.10;;;4.32;;
64029;SDS011;50277;52.064;4.492;2023-09-07T11:02:56;6.20;;;4.50;;
64029;SDS011;50277;52.064;4.492;2023-09-07T11:05:21;5.32;;;4.18;;
64029;SDS011;50277;52.064;4.492;2023-09-07T11:07:47;6.35;;;3.97;;
64029;SDS011;50277;52.064;4.492;2023-09-07T11:10:12;7.40;;;4.15;;
64029;SDS011;50277;52.064;4.492;2023-09-07T11:12:38;4.65;;;3.90;;
64029;SDS011;50277;52.064;4.492;2023-09-07T11:15:04;4.70;;;3.90;;
64029;SDS011;50277;52.064;4.492;2023-09-07T11:17:29;6.88;;;3.92;;
64029;SDS011;50277;52.064;4.492;2023-09-07T11:19:55;6.40;;;4.20;;
64029;SDS011;50277;52.064;4.492;2023-09-07T11:22:20;6.20;;;3.92;;
64029;SDS011;50277;52.064;4.492;2023-09-07T11:24:47;4.97;;;3.60;;
64029;SDS011;50277;52.064;4.492;2023-09-07T11:27:12;7.88;;;4.38;;
64029;SDS011;50277;52.064;4.492;2023-09-07T11:29:37;8.68;;;4.45;;
64029;SDS011;50277;52.064;4.492;2023-09-07T11:32:07;6.35;;;4.20;;
64029;SDS011;50277;52.064;4.492;2023-09-07T11:34:46;9.10;;;4.47;;
64029;SDS011;50277;52.064;4.492;2023-09-07T11:37:15;11.00;;;4.00;;
64029;SDS011;50277;52.064;4.492;2023-09-07T11:39:40;6.85;;;4.35;;
64029;SDS011;50277;52.064;4.492;2023-09-07T11:42:06;4.38;;;3.50;;
64029;SDS011;50277;52.064;4.492;2023-09-07T11:44:31;8.73;;;3.72;;
64029;SDS011;50277;52.064;4.492;2023-09-07T11:46:56;4.57;;;3.60;;
64029;SDS011;50277;52.064;4.492;2023-09-07T11:49:22;8.05;;;3.53;;
64029;SDS011;50277;52.064;4.492;2023-09-07T11:51:47;8.57;;;3.60;;
64029;SDS011;50277;52.064;4.492;2023-09-07T11:54:12;9.18;;;4.20;;
64029;SDS011;50277;52.064;4.492;2023-09-07T11:56:38;7.88;;;3.90;;
64029;SDS011;50277;52.064;4.492;2023-09-07T11:59:07;3.90;;;3.50;;
64029;SDS011;50277;52.064;4.492;2023-09-07T12:01:33;6.22;;;3.70;;
64029;SDS011;50277;52.064;4.492;2023-09-07T12:03:59;3.72;;;3.38;;
64029;SDS011;50277;52.064;4.492;2023-09-07T12:06:24;7.10;;;3.88;;
64029;SDS011;50277;52.064;4.492;2023-09-07T12:11:25;4.57;;;3.40;;
64029;SDS011;50277;52.064;4.492;2023-09-07T12:13:50;4.60;;;3.78;;
64029;SDS011;50277;52.064;4.492;2023-09-07T12:16:16;8.00;;;3.72;;
64029;SDS011;50277;52.064;4.492;2023-09-07T12:18:41;4.82;;;3.50;;
64029;SDS011;50277;52.064;4.492;2023-09-07T12:21:06;3.45;;;3.15;;
64029;SDS011;50277;52.064;4.492;2023-09-07T12:23:33;5.03;;;3.45;;
64029;SDS011;50277;52.064;4.492;2023-09-07T12:25:58;8.98;;;3.50;;
64029;SDS011;50277;52.064;4.492;2023-09-07T12:28:24;4.15;;;3.38;;
64029;SDS011;50277;52.064;4.492;2023-09-07T12:30:50;4.60;;;3.13;;
64029;SDS011;50277;52.064;4.492;2023-09-07T12:33:16;6.40;;;3.30;;
64029;SDS011;50277;52.064;4.492;2023-09-07T12:35:41;4.32;;;3.30;;
64029;SDS011;50277;52.064;4.492;2023-09-07T12:38:06;6.22;;;3.60;;
64029;SDS011;50277;52.064;4.492;2023-09-07T12:40:34;4.27;;;3.17;;
64029;SDS011;50277;52.064;4.492;2023-09-07T12:42:59;6.65;;;3.50;;
64029;SDS011;50277;52.064;4.492;2023-09-07T12:45:24;4.07;;;2.97;;
64029;SDS011;50277;52.064;4.492;2023-09-07T12:47:50;7.68;;;3.80;;
64029;SDS011;50277;52.064;4.492;2023-09-07T12:50:15;6.93;;;3.67;;
64029;SDS011;50277;52.064;4.492;2023-09-07T12:52:40;4.18;;;3.70;;
64029;SDS011;50277;52.064;4.492;2023-09-07T12:55:06;8.18;;;3.75;;
64029;SDS011;50277;52.064;4.492;2023-09-07T12:57:32;3.92;;;3.63;;
64029;SDS011;50277;52.064;4.492;2023-09-07T12:59:58;6.57;;;3.85;;
64029;SDS011;50277;52.064;4.492;2023-09-07T13:02:23;7.50;;;3.47;;
64029;SDS011;50277;52.064;4.492;2023-09-07T13:04:48;4.57;;;3.72;;
64029;SDS011;50277;52.064;4.492;2023-09-07T13:07:14;7.95;;;4.00;;
64029;SDS011;50277;52.064;4.492;2023-09-07T13:09:39;5.43;;;3.88;;
64029;SDS011;50277;52.064;4.492;2023-09-07T13:12:07;6.25;;;3.78;;
64029;SDS011;50277;52.064;4.492;2023-09-07T13:14:32;8.50;;;3.60;;
64029;SDS011;50277;52.064;4.492;2023-09-07T13:16:57;10.98;;;4.68;;
64029;SDS011;50277;52.064;4.492;2023-09-07T13:19:23;8.23;;;3.97;;
64029;SDS011;50277;52.064;4.492;2023-09-07T13:21:48;6.45;;;4.00;;
64029;SDS011;50277;52.064;4.492;2023-09-07T13:24:13;7.22;;;4.10;;
64029;SDS011;50277;52.064;4.492;2023-09-07T13:26:39;7.43;;;3.58;;
64029;SDS011;50277;52.064;4.492;2023-09-07T13:29:05;5.25;;;4.13;;
64029;SDS011;50277;52.064;4.492;2023-09-07T13:31:30;8.73;;;3.35;;
64029;SDS011;50277;52.064;4.492;2023-09-07T13:33:55;5.75;;;4.05;;
64029;SDS011;50277;52.064;4.492;2023-09-07T13:36:21;6.85;;;3.80;;
64029;SDS011;50277;52.064;4.492;2023-09-07T13:38:46;5.63;;;3.53;;
64029;SDS011;50277;52.064;4.492;2023-09-07T13:41:12;6.38;;;3.67;;
64029;SDS011;50277;52.064;4.492;2023-09-07T13:43:37;6.75;;;3.70;;
64029;SDS011;50277;52.064;4.492;2023-09-07T13:46:03;4.30;;;3.53;;
64029;SDS011;50277;52.064;4.492;2023-09-07T13:48:29;9.38;;;3.70;;
64029;SDS011;50277;52.064;4.492;2023-09-07T13:50:55;7.65;;;3.60;;
64029;SDS011;50277;52.064;4.492;2023-09-07T13:53:20;4.93;;;3.35;;
64029;SDS011;50277;52.064;4.492;2023-09-07T13:55:45;6.80;;;3.83;;
64029;SDS011;50277;52.064;4.492;2023-09-07T13:58:11;4.47;;;3.58;;
64029;SDS011;50277;52.064;4.492;2023-09-07T14:00:36;6.38;;;3.78;;
64029;SDS011;50277;52.064;4.492;2023-09-07T14:03:03;4.07;;;3.50;;
64029;SDS011;50277;52.064;4.492;2023-09-07T14:05:28;4.10;;;3.70;;
64029;SDS011;50277;52.064;4.492;2023-09-07T14:07:53;4.30;;;3.88;;
64029;SDS011;50277;52.064;4.492;2023-09-07T14:10:19;9.35;;;3.78;;
64029;SDS011;50277;52.064;4.492;2023-09-07T14:12:44;8.10;;;3.70;;
64029;SDS011;50277;52.064;4.492;2023-09-07T14:15:12;6.40;;;3.55;;
64029;SDS011;50277;52.064;4.492;2023-09-07T14:17:37;6.93;;;3.72;;
64029;SDS011;50277;52.064;4.492;2023-09-07T14:20:03;4.22;;;3.65;;
64029;SDS011;50277;52.064;4.492;2023-09-07T14:22:29;7.72;;;3.67;;
64029;SDS011;50277;52.064;4.492;2023-09-07T14:24:55;3.90;;;3.50;;
64029;SDS011;50277;52.064;4.492;2023-09-07T14:27:20;4.75;;;3.72;;
64029;SDS011;50277;52.064;4.492;2023-09-07T14:29:47;6.45;;;3.72;;
64029;SDS011;50277;52.064;4.492;2023-09-07T14:32:12;4.60;;;3.90;;
64029;SDS011;50277;52.064;4.492;2023-09-07T14:34:38;5.40;;;3.83;;
64029;SDS011;50277;52.064;4.492;2023-09-07T14:37:03;8.80;;;4.05;;
64029;SDS011;50277;52.064;4.492;2023-09-07T14:39:28;7.07;;;3.85;;
64029;SDS011;50277;52.064;4.492;2023-09-07T14:41:54;4.25;;;3.47;;